sensor_id;sensor_type;location;lat;lon;timestamp;P1;durP1;ratioP1;P2;durP2;ratioP2
51491;SDS011;37569;50.548;8.778;2022-07-03T00:04:09;4.5;;;2.1;;
51491;SDS011;37569;50.548;8.778;2022-07-03T00:09:10;2.5;;;2.1;;
51491;SDS011;37569;50.548;8.778;2022-07-03T00:14:11;2.8;;;2;;
51491;SDS011;37569;50.548;8.778;2022-07-03T00:19:11;2.4;;;2;;
51491;SDS011;37569;50.548;8.778;2022-07-03T00:24:15;2.7;;;2.1;;
51491;SDS011;37569;50.548;8.778;2022-07-03T00:29:13;2.2;;;2;;
51491;SDS011;37569;50.548;8.778;2022-07-03T00:34:14;3.1;;;2.3;;
51491;SDS011;37569;50.548;8.778;2022-07-03T00:39:14;3.4;;;2.2;;
51491;SDS011;37569;50.548;8.778;2022-07-03T00:44:15;4.7;;;2.1;;
51491;SDS011;37569;50.548;8.778;2022-07-03T00:49:15;2.3;;;2.1;;
51491;SDS011;37569;50.548;8.778;2022-07-03T00:54:16;2.7;;;2.1;;
51491;SDS011;37569;50.548;8.778;2022-07-03T00:59:17;2.6;;;2;;
51491;SDS011;37569;50.548;8.778;2022-07-03T01:04:21;2.5;;;2.3;;
51491;SDS011;37569;50.548;8.778;2022-07-03T01:09:19;2.9;;;2.2;;
51491;SDS011;37569;50.548;8.778;2022-07-03T01:14:21;2.7;;;2.2;;
51491;SDS011;37569;50.548;8.778;2022-07-03T01:19:23;3.2;;;2.6;;
51491;SDS011;37569;50.548;8.778;2022-07-03T01:24:55;4.1;;;2.4;;
51491;SDS011;37569;50.548;8.778;2022-07-03T01:29:21;3.4;;;2.2;;
51491;SDS011;37569;50.548;8.778;2022-07-03T01:34:21;3.4;;;2.2;;
51491;SDS011;37569;50.548;8.778;2022-07-03T01:39:24;1.9;;;1.8;;
51491;SDS011;37569;50.548;8.778;2022-07-03T01:44:22;2.6;;;2.1;;
51491;SDS011;37569;50.548;8.778;2022-07-03T01:49:23;2.9;;;2.1;;
51491;SDS011;37569;50.548;8.778;2022-07-03T01:54:24;3.1;;;2;;
51491;SDS011;37569;50.548;8.778;2022-07-03T01:59:24;2.3;;;2.1;;
51491;SDS011;37569;50.548;8.778;2022-07-03T02:04:27;3.4;;;2.2;;
51491;SDS011;37569;50.548;8.778;2022-07-03T02:09:27;3.6;;;2.3;;
51491;SDS011;37569;50.548;8.778;2022-07-03T02:14:30;2.7;;;2.3;;
51491;SDS011;37569;50.548;8.778;2022-07-03T02:19:28;2.8;;;2.3;;
51491;SDS011;37569;50.548;8.778;2022-07-03T02:24:27;3;;;2.2;;
51491;SDS011;37569;50.548;8.778;2022-07-03T02:29:30;2.8;;;2.4;;
51491;SDS011;37569;50.548;8.778;2022-07-03T02:34:30;2.4;;;2.2;;
51491;SDS011;37569;50.548;8.778;2022-07-03T02:39:44;3;;;2.1;;
51491;SDS011;37569;50.548;8.778;2022-07-03T02:44:31;2.4;;;1.8;;
51491;SDS011;37569;50.548;8.778;2022-07-03T02:49:39;2;;;1.8;;
51491;SDS011;37569;50.548;8.778;2022-07-03T02:54:32;2.3;;;1.9;;
51491;SDS011;37569;50.548;8.778;2022-07-03T02:59:35;2.3;;;2.1;;
51491;SDS011;37569;50.548;8.778;2022-07-03T03:04:32;2.3;;;2.1;;
51491;SDS011;37569;50.548;8.778;2022-07-03T03:09:35;2.3;;;2.1;;
51491;SDS011;37569;50.548;8.778;2022-07-03T03:14:37;2.8;;;2;;
51491;SDS011;37569;50.548;8.778;2022-07-03T03:19:36;2.9;;;2.4;;
51491;SDS011;37569;50.548;8.778;2022-07-03T03:24:34;3.6;;;2.8;;
51491;SDS011;37569;50.548;8.778;2022-07-03T03:29:35;3;;;2.7;;
51491;SDS011;37569;50.548;8.778;2022-07-03T03:34:35;5.1;;;2.8;;
51491;SDS011;37569;50.548;8.778;2022-07-03T03:39:36;2.9;;;2.6;;
51491;SDS011;37569;50.548;8.778;2022-07-03T03:44:36;3.6;;;2.9;;
51491;SDS011;37569;50.548;8.778;2022-07-03T03:49:37;3.4;;;2.7;;
51491;SDS011;37569;50.548;8.778;2022-07-03T03:54:39;3.1;;;2.8;;
51491;SDS011;37569;50.548;8.778;2022-07-03T03:59:38;3.2;;;2.9;;
51491;SDS011;37569;50.548;8.778;2022-07-03T04:04:39;3.3;;;2.8;;
51491;SDS011;37569;50.548;8.778;2022-07-03T04:09:40;3.7;;;2.6;;
51491;SDS011;37569;50.548;8.778;2022-07-03T04:14:40;3.1;;;2.5;;
51491;SDS011;37569;50.548;8.778;2022-07-03T04:19:41;4;;;3;;
51491;SDS011;37569;50.548;8.778;2022-07-03T04:24:42;3.9;;;2.7;;
51491;SDS011;37569;50.548;8.778;2022-07-03T04:29:43;2.6;;;2.4;;
51491;SDS011;37569;50.548;8.778;2022-07-03T04:34:44;3;;;2.4;;
51491;SDS011;37569;50.548;8.778;2022-07-03T04:39:45;4.9;;;2.6;;
51491;SDS011;37569;50.548;8.778;2022-07-03T04:44:46;4.7;;;2.6;;
51491;SDS011;37569;50.548;8.778;2022-07-03T04:49:46;3.9;;;2.4;;
51491;SDS011;37569;50.548;8.778;2022-07-03T04:54:47;3.6;;;2.4;;
51491;SDS011;37569;50.548;8.778;2022-07-03T04:59:48;4.2;;;2.4;;
51491;SDS011;37569;50.548;8.778;2022-07-03T05:04:49;4.2;;;2.2;;
51491;SDS011;37569;50.548;8.778;2022-07-03T05:09:50;2.8;;;2.2;;
51491;SDS011;37569;50.548;8.778;2022-07-03T05:14:51;3.3;;;2.4;;
51491;SDS011;37569;50.548;8.778;2022-07-03T05:19:52;3;;;2.2;;
51491;SDS011;37569;50.548;8.778;2022-07-03T05:24:53;3.5;;;2.4;;
51491;SDS011;37569;50.548;8.778;2022-07-03T05:29:54;3;;;2.2;;
51491;SDS011;37569;50.548;8.778;2022-07-03T05:34:55;2.7;;;2.2;;
51491;SDS011;37569;50.548;8.778;2022-07-03T05:39:56;3.3;;;2.1;;
51491;SDS011;37569;50.548;8.778;2022-07-03T05:44:58;3.4;;;1.8;;
51491;SDS011;37569;50.548;8.778;2022-07-03T05:49:59;2.7;;;1.8;;
51491;SDS011;37569;50.548;8.778;2022-07-03T05:55:00;2.4;;;1.8;;
51491;SDS011;37569;50.548;8.778;2022-07-03T06:00:01;2.3;;;1.7;;
51491;SDS011;37569;50.548;8.778;2022-07-03T06:05:02;4.3;;;1.6;;
51491;SDS011;37569;50.548;8.778;2022-07-03T06:10:04;1.8;;;1.6;;
51491;SDS011;37569;50.548;8.778;2022-07-03T06:15:05;1.9;;;1.5;;
51491;SDS011;37569;50.548;8.778;2022-07-03T06:20:06;1.8;;;1.6;;
51491;SDS011;37569;50.548;8.778;2022-07-03T06:25:07;2.3;;;1.6;;
51491;SDS011;37569;50.548;8.778;2022-07-03T06:30:09;2.4;;;1.8;;
51491;SDS011;37569;50.548;8.778;2022-07-03T06:35:10;2.6;;;1.6;;
51491;SDS011;37569;50.548;8.778;2022-07-03T06:40:11;1.8;;;1.4;;
51491;SDS011;37569;50.548;8.778;2022-07-03T06:45:12;2.1;;;1.7;;
51491;SDS011;37569;50.548;8.778;2022-07-03T06:50:13;3.3;;;1.8;;
51491;SDS011;37569;50.548;8.778;2022-07-03T06:55:15;2.1;;;1.6;;
51491;SDS011;37569;50.548;8.778;2022-07-03T07:00:16;1.8;;;1.7;;
51491;SDS011;37569;50.548;8.778;2022-07-03T07:05:17;2.2;;;1.7;;
51491;SDS011;37569;50.548;8.778;2022-07-03T07:10:18;2.1;;;1.6;;
51491;SDS011;37569;50.548;8.778;2022-07-03T07:15:19;2.3;;;1.6;;
51491;SDS011;37569;50.548;8.778;2022-07-03T07:20:21;2.3;;;1.6;;
51491;SDS011;37569;50.548;8.778;2022-07-03T07:25:22;2.4;;;1.7;;
51491;SDS011;37569;50.548;8.778;2022-07-03T07:30:23;1.9;;;1.5;;
51491;SDS011;37569;50.548;8.778;2022-07-03T07:35:24;2.4;;;1.6;;
51491;SDS011;37569;50.548;8.778;2022-07-03T07:40:26;2.2;;;1.5;;
51491;SDS011;37569;50.548;8.778;2022-07-03T07:45:27;1.8;;;1.7;;
51491;SDS011;37569;50.548;8.778;2022-07-03T07:50:28;3.7;;;1.8;;
51491;SDS011;37569;50.548;8.778;2022-07-03T07:55:29;2.6;;;1.8;;
51491;SDS011;37569;50.548;8.778;2022-07-03T08:00:31;2.7;;;1.6;;
51491;SDS011;37569;50.548;8.778;2022-07-03T08:05:32;1.7;;;1.6;;
51491;SDS011;37569;50.548;8.778;2022-07-03T08:10:34;1.9;;;1.6;;
51491;SDS011;37569;50.548;8.778;2022-07-03T08:15:34;2.1;;;1.5;;
51491;SDS011;37569;50.548;8.778;2022-07-03T08:20:36;1.7;;;1.6;;
51491;SDS011;37569;50.548;8.778;2022-07-03T08:25:37;2.8;;;1.7;;
51491;SDS011;37569;50.548;8.778;2022-07-03T08:30:38;2.6;;;1.8;;
51491;SDS011;37569;50.548;8.778;2022-07-03T08:35:39;2.2;;;1.6;;
51491;SDS011;37569;50.548;8.778;2022-07-03T08:40:40;2.9;;;1.5;;
51491;SDS011;37569;50.548;8.778;2022-07-03T08:45:42;1.9;;;1.6;;
51491;SDS011;37569;50.548;8.778;2022-07-03T08:50:43;3.6;;;1.7;;
51491;SDS011;37569;50.548;8.778;2022-07-03T08:55:44;2.8;;;1.6;;
51491;SDS011;37569;50.548;8.778;2022-07-03T09:00:45;2.7;;;1.7;;
51491;SDS011;37569;50.548;8.778;2022-07-03T09:05:47;2.5;;;1.8;;
51491;SDS011;37569;50.548;8.778;2022-07-03T09:10:48;1.8;;;1.5;;
51491;SDS011;37569;50.548;8.778;2022-07-03T09:15:49;2.8;;;1.4;;
51491;SDS011;37569;50.548;8.778;2022-07-03T09:20:52;1.7;;;1.5;;
51491;SDS011;37569;50.548;8.778;2022-07-03T09:25:52;2.4;;;1.5;;
51491;SDS011;37569;50.548;8.778;2022-07-03T09:30:56;1.7;;;1.5;;
51491;SDS011;37569;50.548;8.778;2022-07-03T09:35:55;2.2;;;1.4;;
51491;SDS011;37569;50.548;8.778;2022-07-03T09:40:56;3.1;;;1.4;;
51491;SDS011;37569;50.548;8.778;2022-07-03T09:45:58;2.7;;;1.5;;
51491;SDS011;37569;50.548;8.778;2022-07-03T09:51:08;3.2;;;1.4;;
51491;SDS011;37569;50.548;8.778;2022-07-03T09:56:00;1.4;;;1.3;;
51491;SDS011;37569;50.548;8.778;2022-07-03T10:01:14;2.1;;;1.1;;
51491;SDS011;37569;50.548;8.778;2022-07-03T10:06:03;1.5;;;1.2;;
51491;SDS011;37569;50.548;8.778;2022-07-03T10:11:04;1.8;;;1.1;;
51491;SDS011;37569;50.548;8.778;2022-07-03T10:16:06;2.8;;;1.3;;
51491;SDS011;37569;50.548;8.778;2022-07-03T10:21:07;3.3;;;1.3;;
51491;SDS011;37569;50.548;8.778;2022-07-03T10:26:08;4.4;;;1.2;;
51491;SDS011;37569;50.548;8.778;2022-07-03T10:31:10;2.2;;;1.3;;
51491;SDS011;37569;50.548;8.778;2022-07-03T10:36:11;1.9;;;1.3;;
51491;SDS011;37569;50.548;8.778;2022-07-03T10:41:19;2.7;;;1.2;;
51491;SDS011;37569;50.548;8.778;2022-07-03T10:46:15;2.2;;;1.3;;
51491;SDS011;37569;50.548;8.778;2022-07-03T10:51:16;2.5;;;1.3;;
51491;SDS011;37569;50.548;8.778;2022-07-03T10:56:17;2.6;;;1.4;;
51491;SDS011;37569;50.548;8.778;2022-07-03T11:01:25;3;;;1.2;;
51491;SDS011;37569;50.548;8.778;2022-07-03T11:06:19;2.9;;;1.2;;
51491;SDS011;37569;50.548;8.778;2022-07-03T11:11:33;1.6;;;1.2;;
51491;SDS011;37569;50.548;8.778;2022-07-03T11:16:22;3.1;;;1.3;;
51491;SDS011;37569;50.548;8.778;2022-07-03T11:21:27;2.7;;;1.3;;
51491;SDS011;37569;50.548;8.778;2022-07-03T11:26:25;4.8;;;1.3;;
51491;SDS011;37569;50.548;8.778;2022-07-03T11:31:26;2.9;;;1.4;;
51491;SDS011;37569;50.548;8.778;2022-07-03T11:36:28;3.7;;;1.4;;
51491;SDS011;37569;50.548;8.778;2022-07-03T11:41:29;2.2;;;1.3;;
51491;SDS011;37569;50.548;8.778;2022-07-03T11:46:31;2.2;;;1.4;;
51491;SDS011;37569;50.548;8.778;2022-07-03T11:51:32;3.1;;;1.2;;
51491;SDS011;37569;50.548;8.778;2022-07-03T11:56:33;2.4;;;1.3;;
51491;SDS011;37569;50.548;8.778;2022-07-03T12:01:35;2.1;;;1.2;;
51491;SDS011;37569;50.548;8.778;2022-07-03T12:06:36;1.6;;;1.3;;
51491;SDS011;37569;50.548;8.778;2022-07-03T12:11:37;1.6;;;1.2;;
51491;SDS011;37569;50.548;8.778;2022-07-03T12:16:38;2.7;;;1.5;;
51491;SDS011;37569;50.548;8.778;2022-07-03T12:21:40;2.6;;;1.4;;
51491;SDS011;37569;50.548;8.778;2022-07-03T12:26:41;2.7;;;1.5;;
51491;SDS011;37569;50.548;8.778;2022-07-03T12:31:43;3;;;1.4;;
51491;SDS011;37569;50.548;8.778;2022-07-03T12:36:53;2.7;;;1.5;;
51491;SDS011;37569;50.548;8.778;2022-07-03T12:41:45;1.7;;;1.2;;
51491;SDS011;37569;50.548;8.778;2022-07-03T12:46:46;2.7;;;1.2;;
51491;SDS011;37569;50.548;8.778;2022-07-03T12:51:48;2.1;;;1.2;;
51491;SDS011;37569;50.548;8.778;2022-07-03T12:57:01;1.4;;;1.3;;
51491;SDS011;37569;50.548;8.778;2022-07-03T13:02:06;2.3;;;1.1;;
51491;SDS011;37569;50.548;8.778;2022-07-03T13:06:58;3.7;;;1.3;;
51491;SDS011;37569;50.548;8.778;2022-07-03T13:11:53;2.5;;;1.3;;
51491;SDS011;37569;50.548;8.778;2022-07-03T13:16:55;3.1;;;1.2;;
51491;SDS011;37569;50.548;8.778;2022-07-03T13:21:57;1.6;;;1;;
51491;SDS011;37569;50.548;8.778;2022-07-03T13:26:57;2.1;;;1.2;;
51491;SDS011;37569;50.548;8.778;2022-07-03T13:31:58;2.6;;;1.1;;
51491;SDS011;37569;50.548;8.778;2022-07-03T13:37:00;1.2;;;1.1;;
51491;SDS011;37569;50.548;8.778;2022-07-03T13:42:01;3.3;;;1.3;;
51491;SDS011;37569;50.548;8.778;2022-07-03T13:47:03;1.6;;;1.2;;
51491;SDS011;37569;50.548;8.778;2022-07-03T13:52:04;1.9;;;1.3;;
51491;SDS011;37569;50.548;8.778;2022-07-03T13:57:05;2.1;;;1.3;;
51491;SDS011;37569;50.548;8.778;2022-07-03T14:02:06;5.4;;;4;;
51491;SDS011;37569;50.548;8.778;2022-07-03T14:07:08;2.1;;;1.2;;
51491;SDS011;37569;50.548;8.778;2022-07-03T14:12:09;1.3;;;1.1;;
51491;SDS011;37569;50.548;8.778;2022-07-03T14:17:11;3.7;;;1.1;;
51491;SDS011;37569;50.548;8.778;2022-07-03T14:22:12;1.8;;;1.2;;
51491;SDS011;37569;50.548;8.778;2022-07-03T14:27:13;3.3;;;1.2;;
51491;SDS011;37569;50.548;8.778;2022-07-03T14:32:15;1.8;;;1.1;;
51491;SDS011;37569;50.548;8.778;2022-07-03T14:37:16;1.9;;;1.2;;
51491;SDS011;37569;50.548;8.778;2022-07-03T14:42:17;1.5;;;1.1;;
51491;SDS011;37569;50.548;8.778;2022-07-03T14:47:19;2.6;;;1.2;;
51491;SDS011;37569;50.548;8.778;2022-07-03T14:52:20;1.6;;;1.4;;
51491;SDS011;37569;50.548;8.778;2022-07-03T14:57:24;2.3;;;1.1;;
51491;SDS011;37569;50.548;8.778;2022-07-03T15:02:23;2.9;;;1.2;;
51491;SDS011;37569;50.548;8.778;2022-07-03T15:07:24;2.3;;;1.1;;
51491;SDS011;37569;50.548;8.778;2022-07-03T15:12:25;1.6;;;1.1;;
51491;SDS011;37569;50.548;8.778;2022-07-03T15:17:27;1.7;;;1;;
51491;SDS011;37569;50.548;8.778;2022-07-03T15:22:28;1.3;;;1.1;;
51491;SDS011;37569;50.548;8.778;2022-07-03T15:27:29;2.6;;;1;;
51491;SDS011;37569;50.548;8.778;2022-07-03T15:32:31;1.3;;;1.1;;
51491;SDS011;37569;50.548;8.778;2022-07-03T15:37:35;2.7;;;1.2;;
51491;SDS011;37569;50.548;8.778;2022-07-03T15:42:35;2;;;1.2;;
51491;SDS011;37569;50.548;8.778;2022-07-03T15:47:36;1.7;;;1.1;;
51491;SDS011;37569;50.548;8.778;2022-07-03T15:52:36;1.6;;;1.2;;
51491;SDS011;37569;50.548;8.778;2022-07-03T15:57:41;2.1;;;1.2;;
51491;SDS011;37569;50.548;8.778;2022-07-03T16:02:47;1.3;;;1.2;;
51491;SDS011;37569;50.548;8.778;2022-07-03T16:07:40;1.9;;;1.2;;
51491;SDS011;37569;50.548;8.778;2022-07-03T16:12:41;1.7;;;1.3;;
51491;SDS011;37569;50.548;8.778;2022-07-03T16:17:43;2.3;;;1.2;;
51491;SDS011;37569;50.548;8.778;2022-07-03T16:22:43;1.8;;;1.2;;
51491;SDS011;37569;50.548;8.778;2022-07-03T16:27:45;1.3;;;1.2;;
51491;SDS011;37569;50.548;8.778;2022-07-03T16:32:46;1.6;;;1.3;;
51491;SDS011;37569;50.548;8.778;2022-07-03T16:37:49;3.8;;;1.5;;
51491;SDS011;37569;50.548;8.778;2022-07-03T16:42:48;1.7;;;1.3;;
51491;SDS011;37569;50.548;8.778;2022-07-03T16:47:50;2.6;;;1.4;;
51491;SDS011;37569;50.548;8.778;2022-07-03T16:52:51;2.5;;;1.5;;
51491;SDS011;37569;50.548;8.778;2022-07-03T16:57:53;3.7;;;1.3;;
51491;SDS011;37569;50.548;8.778;2022-07-03T17:02:53;2;;;1.3;;
51491;SDS011;37569;50.548;8.778;2022-07-03T17:07:55;1.7;;;1.2;;
51491;SDS011;37569;50.548;8.778;2022-07-03T17:12:56;1.9;;;1.5;;
51491;SDS011;37569;50.548;8.778;2022-07-03T17:17:58;1.8;;;1.3;;
51491;SDS011;37569;50.548;8.778;2022-07-03T17:23:01;2.6;;;1.2;;
51491;SDS011;37569;50.548;8.778;2022-07-03T17:28:00;2.4;;;1.3;;
51491;SDS011;37569;50.548;8.778;2022-07-03T17:33:02;2;;;1.3;;
51491;SDS011;37569;50.548;8.778;2022-07-03T17:38:05;2.7;;;1.3;;
51491;SDS011;37569;50.548;8.778;2022-07-03T17:43:03;2.3;;;1.2;;
51491;SDS011;37569;50.548;8.778;2022-07-03T17:48:05;3.2;;;1.2;;
51491;SDS011;37569;50.548;8.778;2022-07-03T17:53:06;2.1;;;1.2;;
51491;SDS011;37569;50.548;8.778;2022-07-03T17:58:07;1.6;;;1.2;;
51491;SDS011;37569;50.548;8.778;2022-07-03T18:03:08;1.7;;;1.2;;
51491;SDS011;37569;50.548;8.778;2022-07-03T18:08:10;1.7;;;1.3;;
51491;SDS011;37569;50.548;8.778;2022-07-03T18:13:13;1.7;;;1.1;;
51491;SDS011;37569;50.548;8.778;2022-07-03T18:18:13;1.9;;;1.2;;
51491;SDS011;37569;50.548;8.778;2022-07-03T18:23:14;1.7;;;1.1;;
51491;SDS011;37569;50.548;8.778;2022-07-03T18:28:14;2.7;;;1.4;;
51491;SDS011;37569;50.548;8.778;2022-07-03T18:33:15;3.6;;;1.3;;
51491;SDS011;37569;50.548;8.778;2022-07-03T18:38:17;1.4;;;1.3;;
51491;SDS011;37569;50.548;8.778;2022-07-03T18:43:17;3;;;1.6;;
51491;SDS011;37569;50.548;8.778;2022-07-03T18:48:18;2.2;;;1.5;;
51491;SDS011;37569;50.548;8.778;2022-07-03T18:53:21;3;;;1.5;;
51491;SDS011;37569;50.548;8.778;2022-07-03T18:58:24;3.1;;;1.7;;
51491;SDS011;37569;50.548;8.778;2022-07-03T19:03:23;2.6;;;1.6;;
51491;SDS011;37569;50.548;8.778;2022-07-03T19:08:23;2.4;;;1.6;;
51491;SDS011;37569;50.548;8.778;2022-07-03T19:13:25;4.8;;;1.9;;
51491;SDS011;37569;50.548;8.778;2022-07-03T19:18:25;2.3;;;1.8;;
51491;SDS011;37569;50.548;8.778;2022-07-03T19:23:26;3.1;;;1.9;;
51491;SDS011;37569;50.548;8.778;2022-07-03T19:28:27;4;;;1.9;;
51491;SDS011;37569;50.548;8.778;2022-07-03T19:33:28;3.6;;;2.2;;
51491;SDS011;37569;50.548;8.778;2022-07-03T19:38:29;3.4;;;1.8;;
51491;SDS011;37569;50.548;8.778;2022-07-03T19:43:30;5.2;;;1.8;;
51491;SDS011;37569;50.548;8.778;2022-07-03T19:48:30;3.5;;;1.8;;
51491;SDS011;37569;50.548;8.778;2022-07-03T19:53:32;3.4;;;1.8;;
51491;SDS011;37569;50.548;8.778;2022-07-03T19:58:32;2.8;;;2;;
51491;SDS011;37569;50.548;8.778;2022-07-03T20:03:33;4.3;;;2.2;;
51491;SDS011;37569;50.548;8.778;2022-07-03T20:08:34;3.2;;;1.9;;
51491;SDS011;37569;50.548;8.778;2022-07-03T20:13:35;4.6;;;1.7;;
51491;SDS011;37569;50.548;8.778;2022-07-03T20:18:36;3.7;;;2;;
51491;SDS011;37569;50.548;8.778;2022-07-03T20:23:37;4.7;;;2.4;;
51491;SDS011;37569;50.548;8.778;2022-07-03T20:28:38;3.4;;;1.7;;
51491;SDS011;37569;50.548;8.778;2022-07-03T20:33:39;2.6;;;1.6;;
51491;SDS011;37569;50.548;8.778;2022-07-03T20:38:40;2;;;1.7;;
51491;SDS011;37569;50.548;8.778;2022-07-03T20:43:41;3.9;;;1.6;;
51491;SDS011;37569;50.548;8.778;2022-07-03T20:48:42;3;;;1.6;;
51491;SDS011;37569;50.548;8.778;2022-07-03T20:53:43;2.3;;;1.7;;
51491;SDS011;37569;50.548;8.778;2022-07-03T20:58:43;2.5;;;1.8;;
51491;SDS011;37569;50.548;8.778;2022-07-03T21:03:44;2;;;1.7;;
51491;SDS011;37569;50.548;8.778;2022-07-03T21:08:45;2.1;;;1.6;;
51491;SDS011;37569;50.548;8.778;2022-07-03T21:13:47;2.5;;;1.7;;
51491;SDS011;37569;50.548;8.778;2022-07-03T21:18:47;2.8;;;1.5;;
51491;SDS011;37569;50.548;8.778;2022-07-03T21:23:48;2.4;;;1.6;;
51491;SDS011;37569;50.548;8.778;2022-07-03T21:28:49;2.4;;;1.7;;
51491;SDS011;37569;50.548;8.778;2022-07-03T21:33:50;3.2;;;1.6;;
51491;SDS011;37569;50.548;8.778;2022-07-03T21:38:50;2.7;;;1.8;;
51491;SDS011;37569;50.548;8.778;2022-07-03T21:43:51;2.1;;;1.7;;
51491;SDS011;37569;50.548;8.778;2022-07-03T21:48:52;3.1;;;1.8;;
51491;SDS011;37569;50.548;8.778;2022-07-03T21:53:53;3.9;;;1.7;;
51491;SDS011;37569;50.548;8.778;2022-07-03T21:58:54;3.6;;;1.9;;
51491;SDS011;37569;50.548;8.778;2022-07-03T22:03:55;3;;;2;;
51491;SDS011;37569;50.548;8.778;2022-07-03T22:08:55;3;;;1.8;;
51491;SDS011;37569;50.548;8.778;2022-07-03T22:13:56;3.3;;;1.8;;
51491;SDS011;37569;50.548;8.778;2022-07-03T22:18:57;1.9;;;1.5;;
51491;SDS011;37569;50.548;8.778;2022-07-03T22:23:58;4.4;;;1.7;;
51491;SDS011;37569;50.548;8.778;2022-07-03T22:28:59;2.2;;;1.7;;
51491;SDS011;37569;50.548;8.778;2022-07-03T22:33:59;2.8;;;1.8;;
51491;SDS011;37569;50.548;8.778;2022-07-03T22:39:00;3.3;;;2;;
51491;SDS011;37569;50.548;8.778;2022-07-03T22:44:01;2.2;;;1.7;;
51491;SDS011;37569;50.548;8.778;2022-07-03T22:49:02;3.7;;;1.7;;
51491;SDS011;37569;50.548;8.778;2022-07-03T22:54:03;2.8;;;1.8;;
51491;SDS011;37569;50.548;8.778;2022-07-03T22:59:03;3.1;;;1.8;;
51491;SDS011;37569;50.548;8.778;2022-07-03T23:04:04;2.9;;;1.8;;
51491;SDS011;37569;50.548;8.778;2022-07-03T23:09:05;2.8;;;2.1;;
51491;SDS011;37569;50.548;8.778;2022-07-03T23:14:06;2.4;;;1.8;;
51491;SDS011;37569;50.548;8.778;2022-07-03T23:19:06;3.5;;;1.9;;
51491;SDS011;37569;50.548;8.778;2022-07-03T23:24:07;3.1;;;1.9;;
51491;SDS011;37569;50.548;8.778;2022-07-03T23:29:08;3.2;;;1.9;;
51491;SDS011;37569;50.548;8.778;2022-07-03T23:34:09;2.4;;;2;;
51491;SDS011;37569;50.548;8.778;2022-07-03T23:39:09;2.7;;;2;;
51491;SDS011;37569;50.548;8.778;2022-07-03T23:44:10;3;;;2;;
51491;SDS011;37569;50.548;8.778;2022-07-03T23:49:11;4.2;;;2;;
51491;SDS011;37569;50.548;8.778;2022-07-03T23:54:12;3;;;2.1;;
51491;SDS011;37569;50.548;8.778;2022-07-03T23:59:12;2.9;;;2;;
